sensor_id;sensor_type;location;lat;lon;timestamp;P1;durP1;ratioP1;P2;durP2;ratioP2
18695;SDS011;22617;43.690;27.956;2023-04-15T00:01:27;2.53;;;1.03;;
18695;SDS011;22617;43.690;27.956;2023-04-15T00:06:35;2.60;;;1.30;;
18695;SDS011;22617;43.690;27.956;2023-04-15T00:11:39;2.53;;;1.20;;
18695;SDS011;22617;43.690;27.956;2023-04-15T00:16:44;3.23;;;2.13;;
18695;SDS011;22617;43.690;27.956;2023-04-15T00:21:47;2.80;;;1.83;;
18695;SDS011;22617;43.690;27.956;2023-04-15T00:26:51;2.60;;;1.50;;
18695;SDS011;22617;43.690;27.956;2023-04-15T00:31:56;1.87;;;1.30;;
18695;SDS011;22617;43.690;27.956;2023-04-15T00:36:59;2.40;;;1.37;;
18695;SDS011;22617;43.690;27.956;2023-04-15T00:42:03;2.77;;;1.40;;
18695;SDS011;22617;43.690;27.956;2023-04-15T00:47:08;2.20;;;1.23;;
18695;SDS011;22617;43.690;27.956;2023-04-15T00:52:13;4.53;;;1.40;;
18695;SDS011;22617;43.690;27.956;2023-04-15T00:57:17;1.10;;;1.00;;
18695;SDS011;22617;43.690;27.956;2023-04-15T01:02:24;2.73;;;1.73;;
18695;SDS011;22617;43.690;27.956;2023-04-15T01:07:28;8.07;;;2.63;;
18695;SDS011;22617;43.690;27.956;2023-04-15T01:12:31;2.03;;;1.37;;
18695;SDS011;22617;43.690;27.956;2023-04-15T01:17:37;3.30;;;1.27;;
18695;SDS011;22617;43.690;27.956;2023-04-15T01:22:41;1.70;;;1.27;;
18695;SDS011;22617;43.690;27.956;2023-04-15T01:27:47;1.93;;;1.20;;
18695;SDS011;22617;43.690;27.956;2023-04-15T01:32:51;2.60;;;1.20;;
18695;SDS011;22617;43.690;27.956;2023-04-15T01:38:13;3.07;;;1.47;;
18695;SDS011;22617;43.690;27.956;2023-04-15T01:43:20;2.93;;;1.53;;
18695;SDS011;22617;43.690;27.956;2023-04-15T01:48:23;4.03;;;1.50;;
18695;SDS011;22617;43.690;27.956;2023-04-15T01:53:28;2.00;;;1.20;;
18695;SDS011;22617;43.690;27.956;2023-04-15T01:58:32;1.97;;;1.20;;
18695;SDS011;22617;43.690;27.956;2023-04-15T02:03:36;2.63;;;1.10;;
18695;SDS011;22617;43.690;27.956;2023-04-15T02:08:40;3.73;;;1.43;;
18695;SDS011;22617;43.690;27.956;2023-04-15T02:13:46;2.20;;;1.30;;
18695;SDS011;22617;43.690;27.956;2023-04-15T02:18:49;3.83;;;1.87;;
18695;SDS011;22617;43.690;27.956;2023-04-15T02:23:53;2.40;;;1.10;;
18695;SDS011;22617;43.690;27.956;2023-04-15T02:28:58;3.37;;;1.20;;
18695;SDS011;22617;43.690;27.956;2023-04-15T02:34:02;3.63;;;1.20;;
18695;SDS011;22617;43.690;27.956;2023-04-15T02:39:06;3.70;;;1.63;;
18695;SDS011;22617;43.690;27.956;2023-04-15T02:44:10;3.20;;;1.33;;
18695;SDS011;22617;43.690;27.956;2023-04-15T02:49:14;5.27;;;1.60;;
18695;SDS011;22617;43.690;27.956;2023-04-15T02:54:19;6.03;;;1.43;;
18695;SDS011;22617;43.690;27.956;2023-04-15T02:59:25;6.43;;;1.73;;
18695;SDS011;22617;43.690;27.956;2023-04-15T03:04:29;7.87;;;2.40;;
18695;SDS011;22617;43.690;27.956;2023-04-15T03:09:33;7.03;;;2.07;;
18695;SDS011;22617;43.690;27.956;2023-04-15T03:14:39;5.20;;;2.00;;
18695;SDS011;22617;43.690;27.956;2023-04-15T03:19:42;3.17;;;2.00;;
18695;SDS011;22617;43.690;27.956;2023-04-15T03:24:46;4.67;;;1.73;;
18695;SDS011;22617;43.690;27.956;2023-04-15T03:29:52;9.23;;;2.50;;
18695;SDS011;22617;43.690;27.956;2023-04-15T03:34:57;9.67;;;2.63;;
18695;SDS011;22617;43.690;27.956;2023-04-15T03:40:01;8.37;;;3.17;;
18695;SDS011;22617;43.690;27.956;2023-04-15T03:45:07;6.87;;;3.23;;
18695;SDS011;22617;43.690;27.956;2023-04-15T03:50:11;11.17;;;3.10;;
18695;SDS011;22617;43.690;27.956;2023-04-15T03:55:14;10.10;;;3.73;;
18695;SDS011;22617;43.690;27.956;2023-04-15T04:00:19;7.73;;;3.87;;
18695;SDS011;22617;43.690;27.956;2023-04-15T04:05:23;15.80;;;5.07;;
18695;SDS011;22617;43.690;27.956;2023-04-15T04:10:26;7.37;;;3.20;;
18695;SDS011;22617;43.690;27.956;2023-04-15T04:15:31;16.27;;;3.47;;
18695;SDS011;22617;43.690;27.956;2023-04-15T04:20:35;9.70;;;3.13;;
18695;SDS011;22617;43.690;27.956;2023-04-15T04:25:39;24.80;;;4.17;;
18695;SDS011;22617;43.690;27.956;2023-04-15T04:30:44;19.77;;;7.03;;
18695;SDS011;22617;43.690;27.956;2023-04-15T04:35:48;18.83;;;4.07;;
18695;SDS011;22617;43.690;27.956;2023-04-15T04:40:51;18.90;;;3.57;;
18695;SDS011;22617;43.690;27.956;2023-04-15T04:45:56;9.20;;;3.40;;
18695;SDS011;22617;43.690;27.956;2023-04-15T04:51:00;11.53;;;3.93;;
18695;SDS011;22617;43.690;27.956;2023-04-15T04:56:04;14.67;;;3.97;;
18695;SDS011;22617;43.690;27.956;2023-04-15T05:01:09;14.73;;;4.40;;
18695;SDS011;22617;43.690;27.956;2023-04-15T05:06:13;13.43;;;4.10;;
18695;SDS011;22617;43.690;27.956;2023-04-15T05:11:17;22.10;;;4.43;;
18695;SDS011;22617;43.690;27.956;2023-04-15T05:16:22;13.70;;;4.00;;
18695;SDS011;22617;43.690;27.956;2023-04-15T05:21:26;14.93;;;3.97;;
18695;SDS011;22617;43.690;27.956;2023-04-15T05:26:30;16.30;;;4.53;;
18695;SDS011;22617;43.690;27.956;2023-04-15T05:31:34;12.20;;;3.73;;
18695;SDS011;22617;43.690;27.956;2023-04-15T05:36:39;13.13;;;4.27;;
18695;SDS011;22617;43.690;27.956;2023-04-15T05:41:42;12.57;;;4.13;;
18695;SDS011;22617;43.690;27.956;2023-04-15T05:46:47;11.70;;;4.00;;
18695;SDS011;22617;43.690;27.956;2023-04-15T05:51:51;10.37;;;3.83;;
18695;SDS011;22617;43.690;27.956;2023-04-15T05:56:55;13.20;;;4.10;;
18695;SDS011;22617;43.690;27.956;2023-04-15T06:02:00;16.27;;;4.37;;
18695;SDS011;22617;43.690;27.956;2023-04-15T06:07:03;11.17;;;4.10;;
18695;SDS011;22617;43.690;27.956;2023-04-15T06:12:07;20.13;;;5.30;;
18695;SDS011;22617;43.690;27.956;2023-04-15T06:17:14;16.07;;;4.37;;
18695;SDS011;22617;43.690;27.956;2023-04-15T06:22:19;12.07;;;4.93;;
18695;SDS011;22617;43.690;27.956;2023-04-15T06:27:23;14.83;;;4.93;;
18695;SDS011;22617;43.690;27.956;2023-04-15T06:32:28;17.43;;;5.80;;
18695;SDS011;22617;43.690;27.956;2023-04-15T06:37:31;19.80;;;6.47;;
18695;SDS011;22617;43.690;27.956;2023-04-15T06:42:35;17.13;;;6.40;;
18695;SDS011;22617;43.690;27.956;2023-04-15T06:47:40;22.37;;;7.43;;
18695;SDS011;22617;43.690;27.956;2023-04-15T06:52:44;16.67;;;7.53;;
18695;SDS011;22617;43.690;27.956;2023-04-15T06:57:48;23.43;;;7.67;;
18695;SDS011;22617;43.690;27.956;2023-04-15T07:02:52;20.20;;;7.77;;
18695;SDS011;22617;43.690;27.956;2023-04-15T07:07:57;19.30;;;8.67;;
18695;SDS011;22617;43.690;27.956;2023-04-15T07:13:01;24.17;;;8.30;;
18695;SDS011;22617;43.690;27.956;2023-04-15T07:18:05;19.97;;;7.43;;
18695;SDS011;22617;43.690;27.956;2023-04-15T07:23:10;15.80;;;7.53;;
18695;SDS011;22617;43.690;27.956;2023-04-15T07:28:13;15.23;;;6.93;;
18695;SDS011;22617;43.690;27.956;2023-04-15T07:33:18;16.60;;;7.40;;
18695;SDS011;22617;43.690;27.956;2023-04-15T07:38:22;21.53;;;8.00;;
18695;SDS011;22617;43.690;27.956;2023-04-15T07:43:25;15.97;;;6.63;;
18695;SDS011;22617;43.690;27.956;2023-04-15T07:48:31;15.20;;;6.30;;
18695;SDS011;22617;43.690;27.956;2023-04-15T07:53:36;12.07;;;5.47;;
18695;SDS011;22617;43.690;27.956;2023-04-15T07:58:40;9.53;;;3.93;;
18695;SDS011;22617;43.690;27.956;2023-04-15T08:03:45;9.33;;;3.20;;
18695;SDS011;22617;43.690;27.956;2023-04-15T08:08:49;8.07;;;3.20;;
18695;SDS011;22617;43.690;27.956;2023-04-15T08:13:53;9.97;;;3.40;;
18695;SDS011;22617;43.690;27.956;2023-04-15T08:18:58;9.00;;;3.60;;
18695;SDS011;22617;43.690;27.956;2023-04-15T08:24:02;9.37;;;3.87;;
18695;SDS011;22617;43.690;27.956;2023-04-15T08:29:06;6.93;;;3.57;;
18695;SDS011;22617;43.690;27.956;2023-04-15T08:34:11;10.90;;;3.67;;
18695;SDS011;22617;43.690;27.956;2023-04-15T08:39:14;6.63;;;3.23;;
18695;SDS011;22617;43.690;27.956;2023-04-15T08:44:18;9.63;;;3.57;;
18695;SDS011;22617;43.690;27.956;2023-04-15T08:49:24;6.43;;;2.83;;
18695;SDS011;22617;43.690;27.956;2023-04-15T08:54:29;7.13;;;3.00;;
18695;SDS011;22617;43.690;27.956;2023-04-15T08:59:33;6.07;;;2.30;;
18695;SDS011;22617;43.690;27.956;2023-04-15T09:04:39;6.70;;;2.10;;
18695;SDS011;22617;43.690;27.956;2023-04-15T09:09:42;12.00;;;1.80;;
18695;SDS011;22617;43.690;27.956;2023-04-15T09:14:46;4.80;;;1.80;;
18695;SDS011;22617;43.690;27.956;2023-04-15T09:19:53;5.00;;;1.87;;
18695;SDS011;22617;43.690;27.956;2023-04-15T09:25:28;4.77;;;1.83;;
18695;SDS011;22617;43.690;27.956;2023-04-15T09:30:35;6.73;;;1.93;;
18695;SDS011;22617;43.690;27.956;2023-04-15T09:35:41;2.67;;;1.30;;
18695;SDS011;22617;43.690;27.956;2023-04-15T09:40:50;4.97;;;1.37;;
18695;SDS011;22617;43.690;27.956;2023-04-15T09:45:54;4.40;;;1.40;;
18695;SDS011;22617;43.690;27.956;2023-04-15T09:51:01;3.97;;;1.70;;
18695;SDS011;22617;43.690;27.956;2023-04-15T09:56:05;4.87;;;2.20;;
18695;SDS011;22617;43.690;27.956;2023-04-15T10:01:09;5.63;;;1.80;;
18695;SDS011;22617;43.690;27.956;2023-04-15T10:06:14;4.97;;;1.70;;
18695;SDS011;22617;43.690;27.956;2023-04-15T10:11:18;5.63;;;1.57;;
18695;SDS011;22617;43.690;27.956;2023-04-15T10:16:25;5.03;;;1.70;;
18695;SDS011;22617;43.690;27.956;2023-04-15T10:21:32;6.97;;;1.50;;
18695;SDS011;22617;43.690;27.956;2023-04-15T10:26:36;4.47;;;2.10;;
18695;SDS011;22617;43.690;27.956;2023-04-15T10:31:40;5.87;;;1.40;;
18695;SDS011;22617;43.690;27.956;2023-04-15T10:36:45;5.33;;;1.83;;
18695;SDS011;22617;43.690;27.956;2023-04-15T10:41:58;3.80;;;1.90;;
18695;SDS011;22617;43.690;27.956;2023-04-15T10:47:09;5.33;;;1.63;;
18695;SDS011;22617;43.690;27.956;2023-04-15T10:52:16;6.97;;;1.73;;
18695;SDS011;22617;43.690;27.956;2023-04-15T10:57:27;5.10;;;1.43;;
18695;SDS011;22617;43.690;27.956;2023-04-15T11:02:38;5.95;;;1.55;;
18695;SDS011;22617;43.690;27.956;2023-04-15T11:07:48;4.55;;;1.65;;
18695;SDS011;22617;43.690;27.956;2023-04-15T11:12:55;4.10;;;1.80;;
18695;SDS011;22617;43.690;27.956;2023-04-15T11:18:07;8.50;;;1.97;;
18695;SDS011;22617;43.690;27.956;2023-04-15T11:23:13;2.65;;;1.58;;
18695;SDS011;22617;43.690;27.956;2023-04-15T11:28:17;2.38;;;1.40;;
18695;SDS011;22617;43.690;27.956;2023-04-15T11:33:21;5.45;;;1.75;;
18695;SDS011;22617;43.690;27.956;2023-04-15T11:38:27;4.22;;;1.50;;
18695;SDS011;22617;43.690;27.956;2023-04-15T11:43:30;4.57;;;1.58;;
18695;SDS011;22617;43.690;27.956;2023-04-15T11:48:40;4.63;;;1.50;;
18695;SDS011;22617;43.690;27.956;2023-04-15T11:53:47;3.88;;;1.35;;
18695;SDS011;22617;43.690;27.956;2023-04-15T11:58:56;5.00;;;1.13;;
18695;SDS011;22617;43.690;27.956;2023-04-15T12:04:02;3.58;;;1.38;;
18695;SDS011;22617;43.690;27.956;2023-04-15T12:09:15;3.67;;;1.50;;
18695;SDS011;22617;43.690;27.956;2023-04-15T12:14:23;4.38;;;1.50;;
18695;SDS011;22617;43.690;27.956;2023-04-15T12:19:27;6.50;;;1.48;;
18695;SDS011;22617;43.690;27.956;2023-04-15T12:24:35;2.58;;;1.30;;
18695;SDS011;22617;43.690;27.956;2023-04-15T12:29:39;3.67;;;1.10;;
18695;SDS011;22617;43.690;27.956;2023-04-15T12:34:48;5.05;;;1.40;;
18695;SDS011;22617;43.690;27.956;2023-04-15T12:39:54;3.97;;;1.38;;
18695;SDS011;22617;43.690;27.956;2023-04-15T12:44:57;5.53;;;1.40;;
18695;SDS011;22617;43.690;27.956;2023-04-15T12:50:01;4.38;;;1.33;;
18695;SDS011;22617;43.690;27.956;2023-04-15T12:55:06;3.63;;;1.38;;
18695;SDS011;22617;43.690;27.956;2023-04-15T13:00:11;2.75;;;1.05;;
18695;SDS011;22617;43.690;27.956;2023-04-15T13:05:15;4.10;;;1.25;;
18695;SDS011;22617;43.690;27.956;2023-04-15T13:10:21;3.05;;;1.40;;
18695;SDS011;22617;43.690;27.956;2023-04-15T13:15:24;2.50;;;1.30;;
18695;SDS011;22617;43.690;27.956;2023-04-15T13:20:28;3.15;;;1.48;;
18695;SDS011;22617;43.690;27.956;2023-04-15T13:25:33;3.35;;;1.42;;
18695;SDS011;22617;43.690;27.956;2023-04-15T13:30:37;3.30;;;1.30;;
18695;SDS011;22617;43.690;27.956;2023-04-15T13:35:41;3.92;;;1.35;;
18695;SDS011;22617;43.690;27.956;2023-04-15T13:40:46;6.28;;;1.40;;
18695;SDS011;22617;43.690;27.956;2023-04-15T13:45:50;6.57;;;1.48;;
18695;SDS011;22617;43.690;27.956;2023-04-15T13:50:53;3.28;;;1.20;;
18695;SDS011;22617;43.690;27.956;2023-04-15T13:55:58;5.57;;;1.48;;
18695;SDS011;22617;43.690;27.956;2023-04-15T14:01:01;3.33;;;1.15;;
18695;SDS011;22617;43.690;27.956;2023-04-15T14:06:07;4.07;;;1.30;;
18695;SDS011;22617;43.690;27.956;2023-04-15T14:11:12;3.38;;;1.48;;
18695;SDS011;22617;43.690;27.956;2023-04-15T14:16:16;4.72;;;1.40;;
18695;SDS011;22617;43.690;27.956;2023-04-15T14:21:19;4.68;;;1.63;;
18695;SDS011;22617;43.690;27.956;2023-04-15T14:26:24;6.03;;;1.58;;
18695;SDS011;22617;43.690;27.956;2023-04-15T14:31:28;2.92;;;1.30;;
18695;SDS011;22617;43.690;27.956;2023-04-15T14:36:31;3.33;;;1.30;;
18695;SDS011;22617;43.690;27.956;2023-04-15T14:41:37;2.30;;;1.48;;
18695;SDS011;22617;43.690;27.956;2023-04-15T14:46:40;5.57;;;1.63;;
18695;SDS011;22617;43.690;27.956;2023-04-15T14:51:44;2.75;;;1.58;;
18695;SDS011;22617;43.690;27.956;2023-04-15T14:56:49;3.55;;;1.52;;
18695;SDS011;22617;43.690;27.956;2023-04-15T15:01:53;3.78;;;1.30;;
18695;SDS011;22617;43.690;27.956;2023-04-15T15:06:57;4.32;;;1.63;;
18695;SDS011;22617;43.690;27.956;2023-04-15T15:12:02;3.57;;;1.93;;
18695;SDS011;22617;43.690;27.956;2023-04-15T15:17:05;5.72;;;1.75;;
18695;SDS011;22617;43.690;27.956;2023-04-15T15:22:09;4.13;;;1.45;;
18695;SDS011;22617;43.690;27.956;2023-04-15T15:27:14;4.68;;;1.33;;
18695;SDS011;22617;43.690;27.956;2023-04-15T15:32:18;3.72;;;1.23;;
18695;SDS011;22617;43.690;27.956;2023-04-15T15:37:21;2.92;;;1.33;;
18695;SDS011;22617;43.690;27.956;2023-04-15T15:42:26;2.73;;;1.27;;
18695;SDS011;22617;43.690;27.956;2023-04-15T15:47:33;5.80;;;1.60;;
18695;SDS011;22617;43.690;27.956;2023-04-15T15:52:37;7.73;;;1.57;;
18695;SDS011;22617;43.690;27.956;2023-04-15T15:57:42;3.97;;;1.47;;
18695;SDS011;22617;43.690;27.956;2023-04-15T16:02:46;2.40;;;1.30;;
18695;SDS011;22617;43.690;27.956;2023-04-15T16:08:07;5.33;;;1.67;;
18695;SDS011;22617;43.690;27.956;2023-04-15T16:13:12;4.00;;;1.67;;
18695;SDS011;22617;43.690;27.956;2023-04-15T16:18:16;3.40;;;1.50;;
18695;SDS011;22617;43.690;27.956;2023-04-15T16:23:20;6.10;;;2.13;;
18695;SDS011;22617;43.690;27.956;2023-04-15T16:28:26;6.57;;;3.30;;
18695;SDS011;22617;43.690;27.956;2023-04-15T16:33:30;11.13;;;2.80;;
18695;SDS011;22617;43.690;27.956;2023-04-15T16:38:34;5.53;;;2.63;;
18695;SDS011;22617;43.690;27.956;2023-04-15T16:43:39;10.57;;;3.00;;
18695;SDS011;22617;43.690;27.956;2023-04-15T16:48:42;3.63;;;2.37;;
18695;SDS011;22617;43.690;27.956;2023-04-15T16:53:47;6.87;;;3.10;;
18695;SDS011;22617;43.690;27.956;2023-04-15T16:58:52;7.27;;;3.10;;
18695;SDS011;22617;43.690;27.956;2023-04-15T17:03:56;12.00;;;4.63;;
18695;SDS011;22617;43.690;27.956;2023-04-15T17:09:00;9.10;;;3.43;;
18695;SDS011;22617;43.690;27.956;2023-04-15T17:14:05;12.77;;;3.73;;
18695;SDS011;22617;43.690;27.956;2023-04-15T17:19:09;9.87;;;3.90;;
18695;SDS011;22617;43.690;27.956;2023-04-15T17:24:19;8.33;;;3.73;;
18695;SDS011;22617;43.690;27.956;2023-04-15T17:29:29;10.80;;;4.33;;
18695;SDS011;22617;43.690;27.956;2023-04-15T17:34:35;14.73;;;4.47;;
18695;SDS011;22617;43.690;27.956;2023-04-15T17:40:11;8.90;;;4.20;;
18695;SDS011;22617;43.690;27.956;2023-04-15T17:45:36;8.53;;;3.77;;
18695;SDS011;22617;43.690;27.956;2023-04-15T17:51:00;10.57;;;4.00;;
18695;SDS011;22617;43.690;27.956;2023-04-15T17:56:25;7.83;;;3.83;;
18695;SDS011;22617;43.690;27.956;2023-04-15T18:01:51;13.93;;;4.30;;
18695;SDS011;22617;43.690;27.956;2023-04-15T18:07:14;10.83;;;3.90;;
18695;SDS011;22617;43.690;27.956;2023-04-15T18:12:38;9.67;;;4.10;;
18695;SDS011;22617;43.690;27.956;2023-04-15T18:18:03;11.53;;;3.77;;
18695;SDS011;22617;43.690;27.956;2023-04-15T18:23:06;11.60;;;4.07;;
18695;SDS011;22617;43.690;27.956;2023-04-15T18:28:10;6.07;;;3.63;;
18695;SDS011;22617;43.690;27.956;2023-04-15T18:33:15;9.63;;;4.10;;
18695;SDS011;22617;43.690;27.956;2023-04-15T18:38:19;6.83;;;3.50;;
18695;SDS011;22617;43.690;27.956;2023-04-15T18:43:23;8.37;;;3.60;;
18695;SDS011;22617;43.690;27.956;2023-04-15T18:48:27;9.17;;;3.60;;
18695;SDS011;22617;43.690;27.956;2023-04-15T18:53:31;9.50;;;4.47;;
18695;SDS011;22617;43.690;27.956;2023-04-15T18:58:35;5.97;;;3.70;;
18695;SDS011;22617;43.690;27.956;2023-04-15T19:04:00;9.57;;;3.80;;
18695;SDS011;22617;43.690;27.956;2023-04-15T19:09:04;11.43;;;4.07;;
18695;SDS011;22617;43.690;27.956;2023-04-15T19:14:08;8.70;;;3.60;;
18695;SDS011;22617;43.690;27.956;2023-04-15T19:19:13;8.53;;;3.70;;
18695;SDS011;22617;43.690;27.956;2023-04-15T19:24:17;9.83;;;4.00;;
18695;SDS011;22617;43.690;27.956;2023-04-15T19:29:21;9.90;;;4.17;;
18695;SDS011;22617;43.690;27.956;2023-04-15T19:34:26;14.60;;;5.13;;
18695;SDS011;22617;43.690;27.956;2023-04-15T19:39:29;12.00;;;4.37;;
18695;SDS011;22617;43.690;27.956;2023-04-15T19:44:33;10.57;;;3.87;;
18695;SDS011;22617;43.690;27.956;2023-04-15T19:49:40;12.33;;;4.07;;
18695;SDS011;22617;43.690;27.956;2023-04-15T19:54:44;9.30;;;4.00;;
18695;SDS011;22617;43.690;27.956;2023-04-15T19:59:48;10.57;;;4.13;;
18695;SDS011;22617;43.690;27.956;2023-04-15T20:04:53;10.57;;;4.20;;
18695;SDS011;22617;43.690;27.956;2023-04-15T20:09:57;7.53;;;3.60;;
18695;SDS011;22617;43.690;27.956;2023-04-15T20:15:00;8.73;;;3.90;;
18695;SDS011;22617;43.690;27.956;2023-04-15T20:20:06;7.40;;;4.30;;
18695;SDS011;22617;43.690;27.956;2023-04-15T20:25:10;9.30;;;4.47;;
18695;SDS011;22617;43.690;27.956;2023-04-15T20:30:13;8.40;;;4.03;;
18695;SDS011;22617;43.690;27.956;2023-04-15T20:35:19;10.50;;;4.50;;
18695;SDS011;22617;43.690;27.956;2023-04-15T20:40:22;11.43;;;4.60;;
18695;SDS011;22617;43.690;27.956;2023-04-15T20:45:26;8.40;;;4.27;;
18695;SDS011;22617;43.690;27.956;2023-04-15T20:50:31;9.70;;;5.00;;
18695;SDS011;22617;43.690;27.956;2023-04-15T20:55:35;10.97;;;4.30;;
18695;SDS011;22617;43.690;27.956;2023-04-15T21:00:38;10.40;;;4.10;;
18695;SDS011;22617;43.690;27.956;2023-04-15T21:05:43;10.57;;;3.87;;
18695;SDS011;22617;43.690;27.956;2023-04-15T21:10:47;10.13;;;4.40;;
18695;SDS011;22617;43.690;27.956;2023-04-15T21:15:50;10.07;;;4.40;;
18695;SDS011;22617;43.690;27.956;2023-04-15T21:20:56;10.90;;;4.17;;
18695;SDS011;22617;43.690;27.956;2023-04-15T21:26:01;16.73;;;4.20;;
18695;SDS011;22617;43.690;27.956;2023-04-15T21:31:05;8.03;;;3.77;;
18695;SDS011;22617;43.690;27.956;2023-04-15T21:36:11;12.40;;;3.67;;
18695;SDS011;22617;43.690;27.956;2023-04-15T21:41:15;10.67;;;3.90;;
18695;SDS011;22617;43.690;27.956;2023-04-15T21:46:19;8.10;;;3.77;;
18695;SDS011;22617;43.690;27.956;2023-04-15T21:51:29;6.73;;;3.70;;
18695;SDS011;22617;43.690;27.956;2023-04-15T21:56:33;7.27;;;3.60;;
18695;SDS011;22617;43.690;27.956;2023-04-15T22:01:38;13.17;;;4.20;;
18695;SDS011;22617;43.690;27.956;2023-04-15T22:06:43;9.00;;;3.27;;
18695;SDS011;22617;43.690;27.956;2023-04-15T22:11:47;9.70;;;3.67;;
18695;SDS011;22617;43.690;27.956;2023-04-15T22:16:51;7.43;;;3.03;;
18695;SDS011;22617;43.690;27.956;2023-04-15T22:21:56;8.63;;;3.10;;
18695;SDS011;22617;43.690;27.956;2023-04-15T22:27:00;10.83;;;3.23;;
18695;SDS011;22617;43.690;27.956;2023-04-15T22:32:04;11.90;;;3.33;;
18695;SDS011;22617;43.690;27.956;2023-04-15T22:37:10;8.87;;;3.37;;
18695;SDS011;22617;43.690;27.956;2023-04-15T22:42:14;10.03;;;3.60;;
18695;SDS011;22617;43.690;27.956;2023-04-15T22:47:18;9.60;;;3.73;;
18695;SDS011;22617;43.690;27.956;2023-04-15T22:52:23;11.77;;;3.97;;
18695;SDS011;22617;43.690;27.956;2023-04-15T22:57:32;10.03;;;3.67;;
18695;SDS011;22617;43.690;27.956;2023-04-15T23:02:35;11.60;;;4.30;;
18695;SDS011;22617;43.690;27.956;2023-04-15T23:07:40;8.23;;;4.13;;
18695;SDS011;22617;43.690;27.956;2023-04-15T23:12:44;11.67;;;5.60;;
18695;SDS011;22617;43.690;27.956;2023-04-15T23:17:49;14.73;;;4.60;;
18695;SDS011;22617;43.690;27.956;2023-04-15T23:22:54;15.83;;;5.00;;
18695;SDS011;22617;43.690;27.956;2023-04-15T23:27:57;11.03;;;4.50;;
18695;SDS011;22617;43.690;27.956;2023-04-15T23:33:01;12.30;;;4.77;;
18695;SDS011;22617;43.690;27.956;2023-04-15T23:38:06;11.47;;;5.13;;
18695;SDS011;22617;43.690;27.956;2023-04-15T23:43:10;12.00;;;4.23;;
18695;SDS011;22617;43.690;27.956;2023-04-15T23:48:14;11.13;;;4.87;;
18695;SDS011;22617;43.690;27.956;2023-04-15T23:53:19;12.70;;;5.40;;
18695;SDS011;22617;43.690;27.956;2023-04-15T23:58:22;13.53;;;5.27;;
